Time;durP1;ratioP1;P1;durP2;ratioP2;P2;SDS_P1;SDS_P2;PMS_P1;PMS_P2;Temp;Humidity;BMP_temperature;BMP_pressure;BME280_temperature;BME280_humidity;BME280_pressure;Samples;Min_cycle;Max_cycle;Signal;HPM_P1;HPM_P2
2022/11/18 00:01:25;;;;;;;16.77;11.55;;;;;;;;;;5054122;28;20040;-66
2022/11/18 00:03:51;;;;;;;19.90;11.80;;;;;;;;;;5054523;28;20040;-66
2022/11/18 00:06:18;;;;;;;19.63;11.20;;;;;;;;;;5037764;28;20458;-66
2022/11/18 00:08:44;;;;;;;19.65;11.77;;;;;;;;;;5055616;28;20064;-66
2022/11/18 00:14:17;;;;;;;17.65;11.45;;;;;;;;;;5054576;28;20098;-67
2022/11/18 00:16:44;;;;;;;16.50;11.68;;;;;;;;;;5054037;28;20119;-66
2022/11/18 00:19:10;;;;;;;18.02;12.32;;;;;;;;;;5055336;28;20045;-66
2022/11/18 00:21:36;;;;;;;20.35;12.07;;;;;;;;;;5053479;28;20045;-66
2022/11/18 00:24:02;;;;;;;17.65;11.73;;;;;;;;;;5053580;28;20036;-66
2022/11/18 00:26:28;;;;;;;18.67;11.85;;;;;;;;;;5053933;28;20044;-66
2022/11/18 00:28:54;;;;;;;17.98;12.27;;;;;;;;;;5079462;28;20044;-66
2022/11/18 00:31:20;;;;;;;16.65;11.75;;;;;;;;;;5054100;28;20045;-66
2022/11/18 00:33:46;;;;;;;18.77;12.80;;;;;;;;;;5054067;28;20080;-66
2022/11/18 00:36:13;;;;;;;18.70;12.82;;;;;;;;;;5053948;28;20045;-66
2022/11/18 00:38:39;;;;;;;18.50;12.35;;;;;;;;;;5053583;28;20080;-66
2022/11/18 00:41:07;;;;;;;23.50;13.55;;;;;;;;;;5053487;28;20130;-66
2022/11/18 00:43:33;;;;;;;19.85;13.32;;;;;;;;;;5053967;28;20063;-66
2022/11/18 00:45:59;;;;;;;19.02;13.18;;;;;;;;;;5037396;28;20064;-66
2022/11/18 00:48:26;;;;;;;20.90;13.63;;;;;;;;;;5036885;28;20051;-66
2022/11/18 00:50:53;;;;;;;20.27;14.40;;;;;;;;;;5053691;28;20037;-66
2022/11/18 00:53:19;;;;;;;22.30;14.48;;;;;;;;;;5053698;28;20076;-66
2022/11/18 00:55:45;;;;;;;19.05;13.90;;;;;;;;;;5053887;28;20045;-66
2022/11/18 00:58:13;;;;;;;23.85;14.48;;;;;;;;;;5053329;28;20041;-66
2022/11/18 01:00:40;;;;;;;20.73;14.65;;;;;;;;;;5054705;28;20045;-66
2022/11/18 01:03:06;;;;;;;18.95;14.50;;;;;;;;;;5053094;28;20036;-66
2022/11/18 01:05:32;;;;;;;21.58;14.88;;;;;;;;;;5036718;28;20041;-66
2022/11/18 01:07:59;;;;;;;26.75;15.43;;;;;;;;;;5052813;28;20040;-66
2022/11/18 01:10:25;;;;;;;23.15;15.85;;;;;;;;;;5053554;28;20083;-66
2022/11/18 01:15:39;;;;;;;25.95;16.38;;;;;;;;;;5033289;28;20482;-66
2022/11/18 01:18:06;;;;;;;26.40;17.27;;;;;;;;;;5044995;28;20091;-66
2022/11/18 01:20:33;;;;;;;27.90;16.95;;;;;;;;;;5053011;28;20405;-66
2022/11/18 01:22:59;;;;;;;24.67;16.38;;;;;;;;;;5053171;28;20041;-66
2022/11/18 01:25:25;;;;;;;24.95;16.80;;;;;;;;;;5053067;28;20132;-66
2022/11/18 01:27:51;;;;;;;33.25;18.23;;;;;;;;;;5053905;28;20064;-66
2022/11/18 01:30:17;;;;;;;27.58;18.10;;;;;;;;;;5052663;28;20041;-66
2022/11/18 01:32:44;;;;;;;29.88;19.27;;;;;;;;;;5052986;28;20052;-69
2022/11/18 01:35:10;;;;;;;32.35;18.17;;;;;;;;;;5052782;28;20388;-69
2022/11/18 01:37:37;;;;;;;33.58;18.77;;;;;;;;;;5052677;28;20052;-69
2022/11/18 01:40:04;;;;;;;32.58;17.70;;;;;;;;;;5053738;28;20108;-69
2022/11/18 01:42:30;;;;;;;35.55;19.30;;;;;;;;;;5054017;28;20480;-69
2022/11/18 01:44:58;;;;;;;29.40;18.77;;;;;;;;;;5052312;28;20124;-69
2022/11/18 01:47:26;;;;;;;32.45;19.95;;;;;;;;;;5052515;28;20155;-69
2022/11/18 01:49:53;;;;;;;30.95;19.70;;;;;;;;;;5052909;28;20048;-69
2022/11/18 01:52:19;;;;;;;31.60;19.10;;;;;;;;;;5052249;28;20076;-69
2022/11/18 01:54:47;;;;;;;34.60;20.23;;;;;;;;;;5035728;28;20045;-69
2022/11/18 01:57:17;;;;;;;31.88;18.52;;;;;;;;;;5052296;28;20128;-69
2022/11/18 01:59:44;;;;;;;34.97;19.70;;;;;;;;;;5053433;28;20119;-69
2022/11/18 02:02:12;;;;;;;36.72;20.13;;;;;;;;;;5053035;28;20037;-69
2022/11/18 02:04:43;;;;;;;37.15;20.30;;;;;;;;;;5052507;28;20469;-69
2022/11/18 02:07:09;;;;;;;35.80;19.10;;;;;;;;;;5074411;28;20466;-69
2022/11/18 02:09:38;;;;;;;35.75;20.73;;;;;;;;;;5035499;28;20048;-69
2022/11/18 02:12:05;;;;;;;36.15;19.30;;;;;;;;;;5051923;28;20037;-69
2022/11/18 02:14:33;;;;;;;36.35;19.38;;;;;;;;;;5051951;28;20049;-69
2022/11/18 02:17:18;;;;;;;34.10;18.98;;;;;;;;;;5052002;28;20041;-69
2022/11/18 02:19:47;;;;;;;35.95;19.85;;;;;;;;;;5053387;28;20049;-69
2022/11/18 02:22:22;;;;;;;35.17;19.08;;;;;;;;;;5053132;28;20035;-69
2022/11/18 02:25:04;;;;;;;34.40;20.80;;;;;;;;;;5033341;28;20077;-68
2022/11/18 02:27:30;;;;;;;40.30;19.90;;;;;;;;;;5043091;28;20052;-68
2022/11/18 02:29:56;;;;;;;38.20;20.13;;;;;;;;;;5052233;28;20072;-68
2022/11/18 02:32:24;;;;;;;39.33;19.55;;;;;;;;;;5035128;28;20079;-69
2022/11/18 02:35:00;;;;;;;38.17;20.40;;;;;;;;;;5051580;28;20106;-69
2022/11/18 02:37:26;;;;;;;37.67;20.38;;;;;;;;;;5051951;28;20053;-69
2022/11/18 02:39:59;;;;;;;37.70;19.83;;;;;;;;;;5051506;28;20056;-69
2022/11/18 02:42:27;;;;;;;40.03;20.23;;;;;;;;;;5051401;28;20048;-69
2022/11/18 02:44:56;;;;;;;40.05;21.33;;;;;;;;;;5051751;28;20115;-69
2022/11/18 02:47:23;;;;;;;43.17;20.98;;;;;;;;;;5051806;28;20086;-69
2022/11/18 02:49:54;;;;;;;43.50;21.63;;;;;;;;;;5051677;28;20048;-69
2022/11/18 02:52:22;;;;;;;40.72;20.95;;;;;;;;;;5052437;28;20052;-69
2022/11/18 02:54:49;;;;;;;39.50;21.17;;;;;;;;;;5051561;28;20120;-69
2022/11/18 02:57:15;;;;;;;42.65;20.92;;;;;;;;;;5052322;28;20033;-69
2022/11/18 02:59:42;;;;;;;52.28;21.77;;;;;;;;;;5051393;28;20045;-69
2022/11/18 03:02:09;;;;;;;45.03;21.92;;;;;;;;;;5051164;28;20405;-69
2022/11/18 03:04:36;;;;;;;42.67;21.10;;;;;;;;;;5051067;28;20037;-69
2022/11/18 03:07:12;;;;;;;41.53;21.70;;;;;;;;;;5051754;28;20036;-69
2022/11/18 03:09:41;;;;;;;47.65;22.00;;;;;;;;;;5051042;28;20489;-69
2022/11/18 03:12:25;;;;;;;45.95;21.55;;;;;;;;;;5051490;28;20110;-69
2022/11/18 03:14:51;;;;;;;47.70;22.40;;;;;;;;;;5051672;28;20044;-69
2022/11/18 03:17:17;;;;;;;43.58;21.80;;;;;;;;;;5051318;28;20051;-69
2022/11/18 03:20:04;;;;;;;46.85;22.30;;;;;;;;;;5051465;28;20116;-69
2022/11/18 03:22:40;;;;;;;44.88;23.05;;;;;;;;;;5051057;28;20045;-69
2022/11/18 03:25:06;;;;;;;46.30;22.35;;;;;;;;;;5051541;28;20377;-69
2022/11/18 03:27:56;;;;;;;45.55;22.77;;;8.00;99.90;;;;;;5051233;28;20408;-69
2022/11/18 03:30:23;;;;;;;47.50;22.17;;;;;;;;;;5051110;28;20049;-69
2022/11/18 03:32:58;;;;;;;42.92;22.58;;;;;;;;;;5052305;28;20031;-69
2022/11/18 03:35:25;;;;;;;49.95;22.33;;;;;;;;;;5052385;28;20405;-69
2022/11/18 03:37:54;;;;;;;48.50;21.88;;;;;;;;;;5051162;28;20049;-69
2022/11/18 03:40:23;;;;;;;45.90;23.55;;;;;;;;;;5050852;28;20056;-69
2022/11/18 03:42:51;;;;;;;47.80;23.52;;;;;;;;;;5052383;28;20393;-69
2022/11/18 03:45:20;;;;;;;51.67;22.83;;;;;;;;;;5047678;28;20436;-71
2022/11/18 03:47:49;;;;;;;43.58;22.02;;;;;;;;;;5053871;28;20044;-69
2022/11/18 03:50:19;;;;;;;40.95;22.30;;;;;;;;;;5036349;28;20051;-69
2022/11/18 03:52:47;;;;;;;48.20;22.38;;;;;;;;;;5053000;28;20041;-69
2022/11/18 03:55:16;;;;;;;43.33;21.88;;;;;;;;;;5054137;28;20473;-69
2022/11/18 03:57:42;;;;;;;42.85;22.90;;;;;;;;;;5054087;28;20091;-69
2022/11/18 04:00:10;;;;;;;42.67;21.90;;;;;;;;;;5037866;28;20098;-69
2022/11/18 04:02:37;;;;;;;40.20;20.30;;;;;;;;;;5054266;28;20039;-69
2022/11/18 04:05:05;;;;;;;53.70;23.95;;;;;;;;;;5051943;28;20041;-69
2022/11/18 04:07:40;;;;;;;43.38;23.35;;;;;;;;;;5045508;28;20065;-69
2022/11/18 04:10:39;;;;;;;41.67;22.40;;;8.10;99.90;;;;;;5039650;28;20041;-69
2022/11/18 04:13:05;;;;;;;42.40;21.42;;;;;;;;;;5037820;28;20045;-69
2022/11/18 04:15:31;;;;;;;41.90;21.83;;;;;;;;;;5054409;28;20040;-69
2022/11/18 04:17:58;;;;;;;48.83;23.10;;;;;;;;;;5054150;28;20045;-69
2022/11/18 04:20:24;;;;;;;47.47;22.48;;;;;;;;;;5082123;28;20120;-69
2022/11/18 04:22:50;;;;;;;47.92;21.98;;;;;;;;;;5050942;28;20116;-69
2022/11/18 04:25:16;;;;;;;43.58;21.17;;;;;;;;;;5048724;28;20481;-69
2022/11/18 04:27:42;;;;;;;41.10;21.00;;;;;;;;;;5054038;28;20040;-69
2022/11/18 04:30:08;;;;;;;42.63;20.60;;;;;;;;;;5053880;28;20056;-69
2022/11/18 04:32:35;;;;;;;47.05;22.30;;;;;;;;;;5055270;28;20036;-69
2022/11/18 04:35:01;;;;;;;51.95;22.45;;;;;;;;;;5054306;28;20045;-69
2022/11/18 04:37:27;;;;;;;40.38;21.42;;;;;;;;;;5054835;28;20041;-69
2022/11/18 04:39:53;;;;;;;42.30;22.23;;;;;;;;;;5037072;28;20045;-69
2022/11/18 04:42:19;;;;;;;42.47;21.90;;;;;;;;;;5053326;28;20049;-69
2022/11/18 04:44:45;;;;;;;44.65;20.48;;;;;;;;;;5053863;28;20500;-69
2022/11/18 04:47:11;;;;;;;41.50;20.73;;;;;;;;;;5053514;28;20155;-69
2022/11/18 04:49:38;;;;;;;43.83;22.52;;;;;;;;;;5053484;28;20136;-69
2022/11/18 04:52:04;;;;;;;45.65;20.92;;;;;;;;;;5036740;28;20045;-69
2022/11/18 04:54:30;;;;;;;42.63;21.20;;;;;;;;;;5055073;28;20033;-69
2022/11/18 04:56:56;;;;;;;40.15;22.02;;;;;;;;;;5053259;28;20035;-69
2022/11/18 04:59:24;;;;;;;43.28;22.65;;;;;;;;;;5053290;28;20083;-69
2022/11/18 05:01:50;;;;;;;46.85;22.38;;;;;;;;;;5053420;28;20135;-69
2022/11/18 05:04:17;;;;;;;40.95;21.08;;;;;;;;;;5053568;28;20045;-69
2022/11/18 05:06:43;;;;;;;44.83;21.48;;;;;;;;;;5053211;28;20037;-69
2022/11/18 05:09:10;;;;;;;44.78;23.52;;;;;;;;;;5053173;28;20055;-69
2022/11/18 05:14:20;;;;;;;43.38;21.85;;;;;;;;;;5053021;28;20045;-69
2022/11/18 05:16:47;;;;;;;44.65;22.50;;;;;;;;;;5052965;28;20047;-69
2022/11/18 05:19:13;;;;;;;43.20;22.92;;;;;;;;;;5053094;28;20542;-69
2022/11/18 05:21:39;;;;;;;38.83;21.50;;;;;;;;;;5036645;28;20037;-69
2022/11/18 05:24:05;;;;;;;40.28;21.48;;;;;;;;;;5053009;28;20086;-69
2022/11/18 05:26:31;;;;;;;46.78;22.30;;;;;;;;;;5053067;28;20043;-69
2022/11/18 05:28:57;;;;;;;42.95;21.70;;;;;;;;;;5052826;28;20049;-69
2022/11/18 05:31:23;;;;;;;45.10;21.98;;;;;;;;;;5036446;28;20048;-69
2022/11/18 05:33:49;;;;;;;42.53;21.35;;;;;;;;;;5052520;28;20048;-69
2022/11/18 05:36:17;;;;;;;39.92;21.35;;;;;;;;;;5052651;28;20049;-69
2022/11/18 05:38:44;;;;;;;45.00;22.17;;;;;;;;;;5052487;28;20481;-69
2022/11/18 05:43:09;;;;;;;46.58;21.98;;;;;;;;;;5052394;28;20060;-69
2022/11/18 05:43:56;;;;;;;42.00;21.85;;;;;;;;;;5041354;28;20045;-69
2022/11/18 05:46:22;;;;;;;41.17;21.58;;;;;;;;;;5052399;28;20045;-69
2022/11/18 05:48:48;;;;;;;44.63;21.25;;;;;;;;;;5052604;28;20044;-69
2022/11/18 05:51:15;;;;;;;43.58;22.35;;;;;;;;;;5052596;28;20040;-69
2022/11/18 05:53:41;;;;;;;38.67;21.10;;;;;;;;;;5052198;28;20106;-69
2022/11/18 05:56:15;;;;;;;41.55;21.05;;;;;;;;;;5052274;28;20116;-69
2022/11/18 05:58:41;;;;;;;39.83;19.63;;;;;;;;;;5053419;28;20052;-69
2022/11/18 06:01:08;;;;;;;39.15;20.05;;;;;;;;;;5020133;28;20082;-69
2022/11/18 06:03:36;;;;;;;41.83;20.42;;;;;;;;;;5049933;28;20048;-69
2022/11/18 06:06:03;;;;;;;41.42;21.55;;;;;;;;;;5052575;28;20037;-69
2022/11/18 06:08:32;;;;;;;37.30;21.17;;;;;;;;;;5052038;28;20123;-69
2022/11/18 06:10:59;;;;;;;36.35;20.20;;;;;;;;;;5051938;28;20033;-69
2022/11/18 06:13:30;;;;;;;40.95;20.10;;;;;;;;;;5052236;28;20073;-69
2022/11/18 06:15:56;;;;;;;36.75;19.48;;;;;;;;;;5052148;28;20033;-68
2022/11/18 06:18:23;;;;;;;37.80;19.92;;;;;;;;;;5052463;28;20029;-68
2022/11/18 06:20:51;;;;;;;37.33;20.00;;;;;;;;;;5052061;28;20053;-69
2022/11/18 06:23:17;;;;;;;41.58;19.95;;;;;;;;;;5053422;28;20037;-69
2022/11/18 06:25:43;;;;;;;37.92;20.02;;;;;;;;;;5052249;28;20036;-68
2022/11/18 06:28:10;;;;;;;40.33;20.60;;;;;;;;;;5035380;28;20124;-68
2022/11/18 06:30:36;;;;;;;39.10;20.13;;;;;;;;;;5052020;28;20055;-68
2022/11/18 06:33:02;;;;;;;34.95;19.23;;;;;;;;;;5051915;28;20041;-68
2022/11/18 06:35:28;;;;;;;40.63;20.10;;;;;;;;;;5035266;28;20045;-68
2022/11/18 06:37:54;;;;;;;41.28;19.63;;;;;;;;;;5051493;28;20041;-68
2022/11/18 06:40:20;;;;;;;36.67;20.30;;;;;;;;;;5050914;28;20041;-68
2022/11/18 06:45:31;;;;;;;43.17;19.48;;;;;;;;;;5050265;28;20049;-69
2022/11/18 06:47:59;;;;;;;39.63;21.00;;;;;;;;;;5053081;28;20040;-68
2022/11/18 06:50:25;;;;;;;36.85;19.85;;;;;;;;;;5051602;28;20382;-69
2022/11/18 06:52:51;;;;;;;42.95;20.40;;;;;;;;;;5035052;28;20201;-68
2022/11/18 06:55:17;;;;;;;35.83;19.88;;;;;;;;;;5051614;28;20049;-68
2022/11/18 06:57:43;;;;;;;42.38;20.23;;;;;;;;;;5051548;28;20493;-68
2022/11/18 07:00:09;;;;;;;36.78;19.80;;;;;;;;;;5035790;28;20485;-68
2022/11/18 07:02:36;;;;;;;37.83;19.13;;;;;;;;;;5033366;28;20059;-68
2022/11/18 07:05:02;;;;;;;40.22;19.55;;;;;;;;;;5066747;28;20044;-67
2022/11/18 07:07:28;;;;;;;39.58;19.70;;;;;;;;;;5054398;28;20041;-68
2022/11/18 07:09:54;;;;;;;39.40;19.90;;;;;;;;;;5058860;28;20037;-67
2022/11/18 07:12:21;;;;;;;40.90;19.90;;;;;;;;;;5036653;28;20128;-67
2022/11/18 07:14:47;;;;;;;39.45;19.60;;;;;;;;;;5043064;28;20044;-68
2022/11/18 07:17:13;;;;;;;34.55;18.45;;;;;;;;;;5071814;28;20408;-68
2022/11/18 07:19:40;;;;;;;44.90;19.88;;;;;;;;;;5071995;28;20063;-68
2022/11/18 07:22:06;;;;;;;42.05;20.05;;;;;;;;;;5073740;28;20123;-68
2022/11/18 07:24:33;;;;;;;41.00;18.88;;;;;;;;;;5059893;28;20087;-68
2022/11/18 07:26:59;;;;;;;38.42;20.10;;;;;;;;;;5077337;28;20331;-68
2022/11/18 07:29:25;;;;;;;38.92;19.00;;;;;;;;;;5079793;28;20048;-68
2022/11/18 07:31:51;;;;;;;36.47;18.98;;;;;;;;;;5053962;28;20045;-68
2022/11/18 07:34:17;;;;;;;37.72;18.95;;;;;;;;;;5053242;28;20097;-67
2022/11/18 07:36:43;;;;;;;33.38;17.35;;;;;;;;;;5054802;28;20382;-68
2022/11/18 07:39:09;;;;;;;32.72;16.90;;;;;;;;;;5052814;28;20041;-68
2022/11/18 07:41:38;;;;;;;33.60;18.27;;;;;;;;;;5053503;28;20060;-68
2022/11/18 07:44:06;;;;;;;40.00;19.27;;;;;;;;;;5053651;28;20041;-68
2022/11/18 07:46:32;;;;;;;39.70;19.00;;;;;;;;;;5054033;28;20424;-68
2022/11/18 07:48:59;;;;;;;36.63;18.55;;;;;;;;;;5053456;28;20037;-68
2022/11/18 07:51:27;;;;;;;38.50;18.80;;;;;;;;;;5053347;28;20427;-68
2022/11/18 07:53:53;;;;;;;41.33;20.33;;;;;;;;;;5080591;28;20032;-68
2022/11/18 07:56:19;;;;;;;39.78;18.63;;;;;;;;;;5051515;28;20095;-68
2022/11/18 07:58:46;;;;;;;42.17;20.58;;;;;;;;;;5052745;28;20045;-68
2022/11/18 08:01:17;;;;;;;43.50;20.20;;;;;;;;;;5053601;28;20055;-68
2022/11/18 08:03:43;;;;;;;34.92;18.17;;;;;;;;;;5054168;28;20036;-68
2022/11/18 08:06:10;;;;;;;35.53;17.95;;;;;;;;;;5037347;28;20033;-67
2022/11/18 08:08:37;;;;;;;39.92;18.25;;;;;;;;;;5053276;28;20033;-68
2022/11/18 08:11:05;;;;;;;34.47;17.63;;;;;;;;;;5054185;28;20040;-68
2022/11/18 08:13:31;;;;;;;34.30;18.48;;;;;;;;;;5053889;28;20112;-68
2022/11/18 08:15:57;;;;;;;36.10;17.90;;;;;;;;;;5055304;28;20033;-68
2022/11/18 08:18:24;;;;;;;38.15;17.90;;;;;;;;;;5055061;28;20036;-68
2022/11/18 08:20:50;;;;;;;39.75;18.80;;;;;;;;;;5053788;28;20504;-68
2022/11/18 08:23:17;;;;;;;41.38;19.42;;;;;;;;;;5053036;28;20520;-68
2022/11/18 08:25:44;;;;;;;40.15;19.58;;;;;;;;;;5052243;28;20040;-68
2022/11/18 08:28:11;;;;;;;38.70;18.33;;;;;;;;;;5051085;28;20045;-68
2022/11/18 08:30:37;;;;;;;42.13;19.85;;;;;;;;;;5051956;28;20082;-68
2022/11/18 08:33:03;;;;;;;46.60;18.50;;;;;;;;;;5051125;28;20586;-68
2022/11/18 08:35:30;;;;;;;42.47;18.35;;;;;;;;;;5049414;28;20135;-69
2022/11/18 08:37:56;;;;;;;40.97;18.60;;;;;;;;;;5052837;28;20037;-68
2022/11/18 08:40:22;;;;;;;42.20;17.85;;;;;;;;;;5016887;28;20045;-68
2022/11/18 08:42:48;;;;;;;40.72;18.27;;;;;;;;;;5053384;28;20049;-68
2022/11/18 08:45:15;;;;;;;36.75;18.65;;;;;;;;;;5053932;28;20199;-68
2022/11/18 08:47:41;;;;;;;39.78;18.95;;;;;;;;;;5053561;28;20025;-68
2022/11/18 08:50:08;;;;;;;41.58;19.02;;;;;;;;;;5053478;28;20048;-69
2022/11/18 08:52:34;;;;;;;37.17;18.27;;;;;;;;;;5036651;28;20041;-68
2022/11/18 08:55:01;;;;;;;38.75;16.10;;;;;;;;;;5053501;28;20089;-68
2022/11/18 08:57:27;;;;;;;38.78;18.45;;;;;;;;;;5053195;28;20052;-68
2022/11/18 08:59:53;;;;;;;41.17;17.92;;;;;;;;;;5054217;28;20454;-67
2022/11/18 09:02:20;;;;;;;35.58;17.30;;;;;;;;;;5052642;28;20049;-68
2022/11/18 09:04:50;;;;;;;43.90;19.90;;;;;;;;;;5036778;28;20556;-68
2022/11/18 09:07:17;;;;;;;37.13;18.05;;;;;;;;;;5052894;28;20512;-68
2022/11/18 09:09:43;;;;;;;39.58;17.33;;;;;;;;;;5053141;28;20393;-68
2022/11/18 09:12:13;;;;;;;44.95;18.02;;;;;;;;;;5052920;28;20083;-68
2022/11/18 09:14:40;;;;;;;40.03;17.13;;;;;;;;;;5037015;28;20615;-68
2022/11/18 09:17:06;;;;;;;32.40;16.58;;;;;;;;;;5053099;28;20045;-68
2022/11/18 09:19:32;;;;;;;38.25;17.35;;;;;;;;;;5052822;28;20534;-68
2022/11/18 09:21:58;;;;;;;32.78;16.63;;;;;;;;;;5052775;28;20447;-68
2022/11/18 09:24:25;;;;;;;35.05;17.67;;;;;;;;;;5052555;28;20033;-68
2022/11/18 09:26:52;;;;;;;33.28;16.48;;;;;;;;;;5086557;28;20510;-68
2022/11/18 09:29:18;;;;;;;41.15;16.88;;;;;;;;;;5052325;28;20485;-68
2022/11/18 09:31:45;;;;;;;37.30;17.02;;;;;;;;;;5053967;28;20040;-68
2022/11/18 09:34:11;;;;;;;35.95;15.82;;;;;;;;;;5052420;28;20123;-68
2022/11/18 09:36:37;;;;;;;30.90;16.70;;;;;;;;;;5052647;28;20397;-68
2022/11/18 09:39:03;;;;;;;34.65;16.52;;;;;;;;;;5052441;28;20068;-68
2022/11/18 09:41:42;;;;;;;39.53;16.73;;;;;;;;;;5052100;28;20097;-68
2022/11/18 09:44:14;;;;;;;31.45;14.32;;;;;;;;;;5051446;28;20049;-68
2022/11/18 09:46:43;;;;;;;29.52;14.73;;;;;;;;;;5052761;28;20041;-68
2022/11/18 09:49:14;;;;;;;29.52;15.75;;;;;;;;;;5052328;28;20045;-68
2022/11/18 09:51:41;;;;;;;32.35;14.95;;;;;;;;;;5052055;28;20089;-68
2022/11/18 09:54:10;;;;;;;32.65;15.38;;;;;;;;;;5051964;28;20064;-68
2022/11/18 09:56:36;;;;;;;29.50;14.73;;;;;;;;;;5052344;28;20497;-68
2022/11/18 09:59:03;;;;;;;30.38;13.95;;;;;;;;;;5052186;28;20049;-68
2022/11/18 10:01:29;;;;;;;27.70;13.38;;;;;;;;;;5052215;28;20069;-68
2022/11/18 10:03:56;;;;;;;28.10;14.63;;;;;;;;;;5051641;28;20493;-68
2022/11/18 10:06:28;;;;;;;28.30;13.23;;;;;;;;;;5052174;28;20037;-68
2022/11/18 10:09:00;;;;;;;29.35;13.00;;;;;;;;;;5052057;28;20036;-68
2022/11/18 10:11:30;;;;;;;28.45;13.45;;;;;;;;;;5051290;28;20041;-68
2022/11/18 10:14:06;;;;;;;27.60;13.60;;;;;;;;;;5051290;28;20123;-68
2022/11/18 10:16:43;;;;;;;30.88;14.35;;;;;;;;;;5051499;28;20489;-68
2022/11/18 10:19:18;;;;;;;26.67;14.35;;;;;;;;;;5051751;28;20045;-68
2022/11/18 10:21:47;;;;;;;30.80;13.50;;;;;;;;;;5051311;28;20040;-68
2022/11/18 10:24:24;;;;;;;28.27;13.05;;;;;;;;;;5051600;28;20072;-68
2022/11/18 10:26:57;;;;;;;29.75;13.95;;;;;;;;;;5051506;28;20044;-68
2022/11/18 10:29:23;;;;;;;27.52;14.02;;;;;;;;;;5052952;28;20045;-68
2022/11/18 10:31:55;;;;;;;28.60;13.15;;;;;;;;;;5051348;28;20123;-68
2022/11/18 10:34:21;;;;;;;29.38;13.48;;;;;;;;;;5034577;28;20056;-68
2022/11/18 10:36:58;;;;;;;33.05;13.68;;;;;;;;;;5051215;28;20123;-68
2022/11/18 10:39:24;;;;;;;25.73;13.05;;;;;;;;;;5051515;28;20074;-68
2022/11/18 10:41:52;;;;;;;23.58;11.73;;;;;;;;;;5052576;28;20084;-68
2022/11/18 10:44:35;;;;;;;22.48;12.82;;;;;;;;;;5051416;28;20041;-68
2022/11/18 10:47:19;;;;;;;25.55;12.45;;;;;;;;;;5034274;28;20503;-68
2022/11/18 10:49:45;;;;;;;28.35;11.68;;;;;;;;;;5052349;28;20124;-68
2022/11/18 10:52:13;;;;;;;20.20;12.15;;;;;;;;;;5051189;28;20059;-68
2022/11/18 10:54:40;;;;;;;24.75;11.52;;;;;;;;;;5034708;28;20044;-68
2022/11/18 10:57:18;;;;;;;25.52;12.52;;;;;;;;;;5055114;28;20045;-68
2022/11/18 10:59:51;;;;;;;25.63;12.02;;;;;;;;;;5055111;28;20048;-68
2022/11/18 11:02:29;;;;;;;26.67;11.70;;;;;;;;;;5055366;28;20045;-68
2022/11/18 11:04:56;;;;;;;21.98;10.85;;;;;;;;;;5055584;28;20127;-68
2022/11/18 11:07:31;;;;;;;24.83;11.40;;;;;;;;;;5055428;28;20044;-68
2022/11/18 11:10:01;;;;;;;25.38;11.05;;;;;;;;;;5038829;28;20128;-69
2022/11/18 11:12:28;;;;;;;25.08;11.45;;;;;;;;;;5054800;28;20179;-68
2022/11/18 11:14:56;;;;;;;21.38;11.63;;;;;;;;;;5055122;28;20044;-68
2022/11/18 11:17:22;;;;;;;24.50;12.25;;;;;;;;;;5055062;28;20049;-67
2022/11/18 11:19:48;;;;;;;24.13;11.48;;;;;;;;;;5055029;28;20501;-68
2022/11/18 11:22:15;;;;;;;20.30;10.43;;;;;;;;;;5054767;28;20074;-68
2022/11/18 11:24:41;;;;;;;24.77;12.25;;;;;;;;;;5054142;28;20068;-68
2022/11/18 11:27:33;;;;;;;22.35;11.52;;;;;;;;;;5054544;28;20127;-68
2022/11/18 11:30:18;;;;;;;21.85;11.25;;;;;;;;;;5047876;28;20493;-68
2022/11/18 11:32:44;;;;;;;29.70;11.88;;;;;;;;;;5054021;28;20412;-68
2022/11/18 11:35:29;;;;;;;21.88;11.13;;;;;;;;;;5036822;28;20037;-68
2022/11/18 11:37:55;;;;;;;21.52;11.20;;;;;;;;;;5043569;28;20037;-68
2022/11/18 11:40:30;;;;;;;27.88;13.38;;;;;;;;;;5054332;28;20507;-68
2022/11/18 11:43:28;;;;;;;22.33;11.23;;;;;;;;;;5054402;28;20059;-68
2022/11/18 11:45:54;;;;;;;27.27;12.38;;;;;;;;;;5023926;28;20568;-68
2022/11/18 11:48:20;;;;;;;22.23;11.23;;;;;;;;;;5049712;28;20033;-68
2022/11/18 11:50:52;;;;;;;22.75;11.25;;;;;;;;;;5037870;28;20091;-68
2022/11/18 11:53:37;;;;;;;22.50;11.23;;;;;;;;;;5054309;28;20045;-68
2022/11/18 11:56:17;;;;;;;22.02;11.50;;;;;;;;;;5054331;28;20041;-69
2022/11/18 11:59:05;;;;;;;19.40;10.75;;;;;;;;;;5054369;28;20037;-68
2022/11/18 12:01:38;;;;;;;21.55;12.13;;;;;;;;;;5054365;28;20077;-67
2022/11/18 12:04:04;;;;;;;23.95;11.52;;;;;;;;;;5038058;28;20094;-67
2022/11/18 12:06:30;;;;;;;23.45;11.48;;;;;;;;;;5054795;28;20142;-70
2022/11/18 12:09:02;;;;;;;22.48;10.65;;;;;;;;;;5053877;28;20064;-68
2022/11/18 12:11:31;;;;;;;19.60;10.43;;;;;;;;;;5054706;28;20041;-68
2022/11/18 12:13:57;;;;;;;18.05;9.88;;;;;;;;;;5038056;28;20397;-67
2022/11/18 12:16:39;;;;;;;20.45;9.35;;;;;;;;;;5054604;28;20456;-68
2022/11/18 12:19:10;;;;;;;22.85;11.00;;;;;;;;;;5053917;28;20127;-68
2022/11/18 12:21:46;;;;;;;20.40;10.35;;;;;;;;;;5054037;28;20049;-68
2022/11/18 12:24:29;;;;;;;19.20;9.80;;;;;;;;;;5054007;28;20044;-69
2022/11/18 12:26:56;;;;;;;21.83;10.68;;;;;;;;;;5053916;28;20051;-68
2022/11/18 12:29:24;;;;;;;21.05;9.77;;;;;;;;;;5053927;28;20045;-68
2022/11/18 12:32:13;;;;;;;18.02;9.85;;;;;;;;;;5053758;28;20049;-69
2022/11/18 12:34:41;;;;;;;20.05;9.70;;;;;;;;;;5044224;28;20175;-68
2022/11/18 12:37:22;;;;;;;18.73;9.35;;;;;;;;;;5053721;28;20391;-68
2022/11/18 12:40:00;;;;;;;16.38;9.30;;;;;;;;;;5053302;28;20047;-68
2022/11/18 12:45:42;;;;;;;19.77;9.77;;;;;;;;;;5051607;28;20041;-68
2022/11/18 12:48:23;;;;;;;25.75;11.48;;;;;;;;;;5053631;28;20095;-68
2022/11/18 12:50:51;;;;;;;29.90;12.02;;;;;;;;;;5053683;28;20087;-68
2022/11/18 12:53:36;;;;;;;22.35;10.85;;;;;;;;;;5052530;28;20103;-68
2022/11/18 12:56:20;;;;;;;24.52;11.05;;;;;;;;;;5034266;28;20041;-68
2022/11/18 12:58:48;;;;;;;23.33;11.30;;;;;;;;;;5050745;28;20047;-68
2022/11/18 13:01:16;;;;;;;28.80;11.95;;;;;;;;;;5053466;28;20037;-68
2022/11/18 13:03:43;;;;;;;23.70;11.85;;;;;;;;;;5052575;28;20075;-68
2022/11/18 13:06:21;;;;;;;24.63;13.27;;;;;;;;;;5052972;28;20045;-68
2022/11/18 13:08:52;;;;;;;26.85;11.43;;;;;;;;;;5052857;28;20036;-68
2022/11/18 13:19:34;;;;;;;28.25;12.20;;;;;;;;;;5050605;28;20071;-68
2022/11/18 13:24:47;;;;;;;28.63;14.13;;;;;;;;;;5052252;28;20045;-68
2022/11/18 13:27:19;;;;;;;29.25;12.32;;;;;;;;;;5035755;28;20048;-68
2022/11/18 13:29:50;;;;;;;28.52;13.65;;;;;;;;;;5052744;28;20493;-68
2022/11/18 13:32:26;;;;;;;27.05;12.13;;;;;;;;;;5036068;28;20106;-68
2022/11/18 13:34:53;;;;;;;29.77;12.20;;;;;;;;;;5052754;28;20044;-68
2022/11/18 13:37:22;;;;;;;26.42;12.25;;;;;;;;;;5052741;28;20044;-68
2022/11/18 13:39:48;;;;;;;26.08;11.75;;;;;;;;;;5052341;28;20393;-68
2022/11/18 13:42:17;;;;;;;26.13;12.73;;;;;;;;;;5053607;28;20456;-68
2022/11/18 13:44:57;;;;;;;25.20;12.07;;;;;;;;;;5035709;28;20045;-68
2022/11/18 13:47:27;;;;;;;25.60;11.95;;;;;;;;;;5052260;28;20495;-68
2022/11/18 13:50:11;;;;;;;25.20;10.88;;;;;;;;;;5035594;28;20124;-68
2022/11/18 13:52:40;;;;;;;25.40;11.43;;;;;;;;;;5052540;28;20064;-67
2022/11/18 13:55:08;;;;;;;27.83;12.63;;;;;;;;;;5035622;28;20071;-67
2022/11/18 13:57:35;;;;;;;27.83;13.20;;;;;;;;;;5052200;28;20497;-68
2022/11/18 14:00:04;;;;;;;26.42;12.07;;;;;;;;;;5035759;28;20128;-68
2022/11/18 14:02:30;;;;;;;24.33;10.88;;;;;;;;;;5052061;28;20441;-68
2022/11/18 14:04:58;;;;;;;26.67;11.60;;;;;;;;;;5050838;28;20098;-68
2022/11/18 14:07:24;;;;;;;28.35;12.38;;;;;;;;;;5034650;28;20029;-68
2022/11/18 14:09:59;;;;;;;31.30;12.63;;;;;;;;;;5050670;28;20037;-69
2022/11/18 14:12:27;;;;;;;25.92;11.43;;;;;;;;;;5051254;28;20084;-69
2022/11/18 14:15:11;;;;;;;23.92;11.60;;;;;;;;;;5034470;28;20052;-68
2022/11/18 14:17:37;;;;;;;29.90;13.85;;;;;;;;;;5031976;28;20128;-68
2022/11/18 14:20:08;;;;;;;25.15;11.52;;;;;;;;;;5034740;28;20158;-68
2022/11/18 14:22:41;;;;;;;23.17;11.52;;;;;;;;;;5034701;28;20120;-68
2022/11/18 14:25:13;;;;;;;25.20;11.77;;;;;;;;;;5051083;28;20032;-68
2022/11/18 14:27:41;;;;;;;26.27;11.95;;;;;;;;;;5034553;28;20033;-68
2022/11/18 14:30:42;;;;;;;29.45;11.20;;;;;;;;;;5050444;28;20182;-68
2022/11/18 14:33:20;;;;;;;22.15;11.20;;;;;;;;;;4993486;28;20046;-68
2022/11/18 14:35:50;;;;;;;23.77;11.18;;;;;;;;;;5062993;28;20064;-69
2022/11/18 14:38:18;;;;;;;23.08;10.68;;;;;;;;;;5050607;28;20044;-68
2022/11/18 14:40:46;;;;;;;25.15;11.35;;;;;;;;;;5033572;28;20424;-68
2022/11/18 14:43:12;;;;;;;23.80;12.00;;;;;;;;;;5050372;28;20554;-69
2022/11/18 14:45:39;;;;;;;25.38;11.38;;;;;;;;;;5051490;28;20067;-71
2022/11/18 14:48:05;;;;;;;23.08;11.32;;;;;;;;;;5050265;28;20029;-69
2022/11/18 14:50:31;;;;;;;21.65;10.55;;;;;;;;;;5050429;28;20067;-69
2022/11/18 14:52:57;;;;;;;24.15;12.23;;;;;;;;;;5050383;28;20068;-69